createdAt,value
2023-05-10T00:00:31.224Z,1.87
2023-05-10T00:01:33.135Z,2.20
2023-05-10T00:02:35.296Z,1.60
2023-05-10T00:03:37.287Z,1.30
2023-05-10T00:04:38.977Z,1.40
2023-05-10T00:05:41.134Z,1.43
2023-05-10T00:06:43.353Z,1.60
2023-05-10T00:07:46.559Z,1.47
2023-05-10T00:08:48.888Z,1.70
2023-05-10T00:09:50.612Z,1.90
2023-05-10T00:10:52.056Z,1.70
2023-05-10T00:11:53.692Z,1.30
2023-05-10T00:12:55.570Z,2.13
2023-05-10T00:13:57.440Z,1.93
2023-05-10T00:14:59.143Z,1.80
2023-05-10T00:16:01.001Z,1.90
2023-05-10T00:17:02.752Z,1.80
2023-05-10T00:18:04.519Z,2.13
2023-05-10T00:19:06.442Z,2.00
2023-05-10T00:20:08.411Z,1.53
2023-05-10T00:21:10.848Z,1.53
2023-05-10T00:22:12.385Z,1.93
2023-05-10T00:23:14.326Z,2.20
2023-05-10T00:24:16.512Z,1.93
2023-05-10T00:25:18.337Z,2.10
2023-05-10T00:26:19.938Z,2.10
2023-05-10T00:27:22.886Z,1.97
2023-05-10T00:28:24.609Z,1.90
2023-05-10T00:29:27.303Z,2.23
2023-05-10T00:30:29.051Z,1.93
2023-05-10T00:31:30.893Z,2.37
2023-05-10T00:32:32.747Z,2.00
2023-05-10T00:33:34.478Z,2.10
2023-05-10T00:34:35.989Z,2.03
2023-05-10T00:35:39.220Z,1.97
2023-05-10T00:36:41.122Z,1.90
2023-05-10T00:37:43.398Z,1.77
2023-05-10T00:38:45.066Z,2.67
2023-05-10T00:39:47.773Z,1.63
2023-05-10T00:40:50.481Z,2.10
2023-05-10T00:41:53.173Z,1.70
2023-05-10T00:42:55.537Z,1.50
2023-05-10T00:43:57.128Z,1.60
2023-05-10T00:44:59.234Z,2.40
2023-05-10T00:46:01.439Z,1.90
2023-05-10T00:47:03.045Z,2.40
2023-05-10T00:48:05.432Z,2.43
2023-05-10T00:49:09.841Z,2.10
2023-05-10T00:50:11.518Z,2.83
2023-05-10T00:51:13.541Z,2.97
2023-05-10T00:52:14.987Z,2.60
2023-05-10T00:53:17.168Z,2.30
2023-05-10T00:54:19.578Z,2.80
2023-05-10T00:55:21.373Z,3.07
2023-05-10T00:56:24.264Z,2.90
2023-05-10T00:57:26.054Z,2.37
2023-05-10T00:58:31.970Z,2.80
2023-05-10T00:59:33.871Z,2.87
2023-05-10T01:00:36.656Z,2.87
2023-05-10T01:01:39.019Z,3.57
2023-05-10T01:02:42.725Z,3.43
2023-05-10T01:03:44.738Z,3.17
2023-05-10T01:04:46.779Z,3.27
2023-05-10T01:05:48.557Z,3.07
2023-05-10T01:06:50.002Z,3.70
2023-05-10T01:07:52.835Z,3.80
2023-05-10T01:08:54.847Z,3.80
2023-05-10T01:09:57.243Z,5.13
2023-05-10T01:10:59.052Z,4.90
2023-05-10T01:12:00.878Z,4.30
2023-05-10T01:13:03.099Z,5.03
2023-05-10T01:14:05.277Z,4.83
2023-05-10T01:15:08.800Z,4.60
2023-05-10T01:16:10.499Z,4.77
2023-05-10T01:17:13.333Z,3.73
2023-05-10T01:18:15.705Z,3.80
2023-05-10T01:19:23.028Z,4.00
2023-05-10T01:20:24.822Z,3.13
2023-05-10T01:21:52.878Z,3.77
2023-05-10T01:23:13.965Z,2.80
2023-05-10T01:24:33.927Z,2.97
2023-05-10T01:25:45.182Z,3.00
2023-05-10T01:27:02.966Z,2.77
2023-05-10T01:28:24.120Z,2.50
2023-05-10T01:29:37.952Z,3.30
2023-05-10T01:30:39.596Z,2.80
2023-05-10T01:31:50.081Z,2.97
2023-05-10T01:32:55.333Z,3.50
2023-05-10T01:34:04.202Z,3.47
2023-05-10T01:35:15.692Z,3.33
2023-05-10T01:36:17.311Z,3.10
2023-05-10T01:37:26.649Z,3.50
2023-05-10T01:38:42.801Z,3.00
2023-05-10T01:39:49.645Z,3.07
2023-05-10T01:41:04.482Z,3.70
2023-05-10T01:42:09.245Z,3.43
2023-05-10T01:43:14.406Z,3.47
2023-05-10T01:44:40.275Z,3.90
2023-05-10T01:45:54.006Z,3.27
2023-05-10T01:47:22.080Z,3.57
2023-05-10T01:48:24.855Z,3.43
2023-05-10T01:49:27.789Z,3.70
2023-05-10T01:50:31.306Z,3.83
2023-05-10T01:51:40.636Z,4.20
2023-05-10T01:52:46.130Z,3.60
2023-05-10T01:53:49.080Z,4.80
2023-05-10T01:54:54.608Z,4.40
2023-05-10T01:55:56.665Z,3.47
2023-05-10T01:57:02.105Z,3.57
2023-05-10T01:58:15.388Z,4.10
2023-05-10T01:59:19.505Z,3.37
2023-05-10T02:00:22.217Z,3.90
2023-05-10T02:01:24.871Z,3.93
2023-05-10T02:02:27.478Z,3.97
2023-05-10T02:03:29.399Z,3.80
2023-05-10T02:04:32.105Z,3.50
2023-05-10T02:05:34.558Z,3.40
2023-05-10T02:06:36.983Z,3.57
2023-05-10T02:07:38.900Z,3.07
2023-05-10T02:08:41.201Z,3.23
2023-05-10T02:09:45.078Z,3.23
2023-05-10T02:10:47.662Z,3.23
2023-05-10T02:11:50.659Z,4.13
2023-05-10T02:12:53.199Z,3.63
2023-05-10T02:13:55.015Z,3.93
2023-05-10T02:14:57.358Z,3.10
2023-05-10T02:16:00.171Z,3.57
2023-05-10T02:17:03.015Z,3.40
2023-05-10T02:18:05.341Z,3.10
2023-05-10T02:19:09.633Z,3.10
2023-05-10T02:20:12.706Z,3.73
2023-05-10T02:21:15.567Z,3.20
2023-05-10T02:22:17.753Z,3.30
2023-05-10T02:23:20.175Z,3.00
2023-05-10T02:24:22.897Z,3.30
2023-05-10T02:25:25.037Z,3.40
2023-05-10T02:26:27.108Z,2.90
2023-05-10T02:27:29.114Z,2.77
2023-05-10T02:28:31.326Z,3.03
2023-05-10T02:29:33.936Z,3.10
2023-05-10T02:30:36.048Z,3.10
2023-05-10T02:31:40.012Z,2.87
2023-05-10T02:32:42.437Z,3.30
2023-05-10T02:33:45.677Z,2.90
2023-05-10T02:34:54.182Z,2.73
2023-05-10T02:35:56.127Z,2.83
2023-05-10T02:36:58.612Z,2.80
2023-05-10T02:38:01.215Z,2.50
2023-05-10T02:39:03.327Z,2.30
2023-05-10T02:40:07.903Z,2.40
2023-05-10T02:41:10.451Z,2.53
2023-05-10T02:42:17.740Z,2.67
2023-05-10T02:43:24.811Z,2.83
2023-05-10T02:44:29.844Z,2.60
2023-05-10T02:45:32.508Z,2.77
2023-05-10T02:46:35.023Z,2.20
2023-05-10T02:47:37.674Z,2.43
2023-05-10T02:48:39.443Z,2.60
2023-05-10T02:49:41.487Z,2.10
2023-05-10T02:50:45.980Z,4.10
2023-05-10T02:51:54.063Z,2.60
2023-05-10T02:52:57.449Z,2.47
2023-05-10T02:54:02.996Z,2.53
2023-05-10T02:55:06.467Z,2.30
2023-05-10T02:56:14.531Z,2.00
2023-05-10T02:57:24.136Z,2.63
2023-05-10T02:58:26.468Z,2.20
2023-05-10T02:59:28.199Z,2.30
2023-05-10T03:00:30.269Z,2.37
2023-05-10T03:01:31.923Z,2.63
2023-05-10T03:02:33.950Z,2.10
2023-05-10T03:03:36.207Z,2.50
2023-05-10T03:04:38.557Z,2.50
2023-05-10T03:05:40.389Z,2.40
2023-05-10T03:06:43.237Z,2.53
2023-05-10T03:07:45.621Z,2.33
2023-05-10T03:08:47.581Z,2.40
2023-05-10T03:09:50.223Z,2.10
2023-05-10T03:11:12.478Z,2.30
2023-05-10T03:12:53.954Z,2.33
2023-05-10T03:14:08.699Z,2.33
2023-05-10T03:15:28.949Z,2.73
2023-05-10T03:16:36.029Z,2.93
2023-05-10T03:17:46.601Z,2.77
2023-05-10T03:18:51.495Z,2.60
2023-05-10T03:19:57.041Z,2.60
2023-05-10T03:21:08.216Z,2.30
2023-05-10T03:22:12.057Z,2.47
2023-05-10T03:23:14.475Z,2.30
2023-05-10T03:24:16.851Z,2.73
2023-05-10T03:25:19.515Z,2.40
2023-05-10T03:26:28.102Z,1.73
2023-05-10T03:27:31.305Z,2.00
2023-05-10T03:28:36.379Z,2.10
2023-05-10T03:29:39.162Z,2.30
2023-05-10T03:30:42.009Z,2.00
2023-05-10T03:31:45.911Z,2.30
2023-05-10T03:32:47.919Z,2.00
2023-05-10T03:33:50.514Z,2.13
2023-05-10T03:34:52.000Z,1.97
2023-05-10T03:35:53.469Z,2.57
2023-05-10T03:36:55.014Z,2.33
2023-05-10T03:37:56.845Z,2.30
2023-05-10T03:38:58.439Z,2.27
2023-05-10T03:40:00.056Z,2.20
2023-05-10T03:41:01.688Z,2.60
2023-05-10T03:42:04.613Z,2.63
2023-05-10T03:43:06.326Z,2.60
2023-05-10T03:44:08.228Z,2.80
2023-05-10T03:45:10.429Z,3.03
2023-05-10T03:46:12.049Z,2.20
2023-05-10T03:47:13.785Z,2.53
2023-05-10T03:48:15.530Z,2.37
2023-05-10T03:49:17.211Z,2.70
2023-05-10T03:50:19.755Z,2.83
2023-05-10T03:51:21.662Z,2.77
2023-05-10T03:52:23.265Z,2.77
2023-05-10T03:53:25.122Z,2.87
2023-05-10T03:54:27.483Z,3.67
2023-05-10T03:55:29.758Z,2.70
2023-05-10T03:56:31.725Z,3.03
2023-05-10T03:57:33.675Z,2.50
2023-05-10T03:58:35.383Z,2.93
2023-05-10T03:59:37.175Z,2.37
2023-05-10T04:00:44.837Z,2.30
2023-05-10T04:01:48.122Z,2.70
2023-05-10T04:02:50.138Z,2.90
2023-05-10T04:03:51.852Z,2.57
2023-05-10T04:04:53.503Z,3.00
2023-05-10T04:06:02.481Z,2.60
2023-05-10T04:07:04.317Z,2.17
2023-05-10T04:08:06.758Z,2.53
2023-05-10T04:09:10.192Z,3.40
2023-05-10T04:10:12.280Z,3.10
2023-05-10T04:11:14.825Z,3.00
2023-05-10T04:12:16.395Z,3.30
2023-05-10T04:13:18.075Z,2.90
2023-05-10T04:14:19.781Z,2.80
2023-05-10T04:15:21.458Z,3.27
2023-05-10T04:16:23.483Z,2.70
2023-05-10T04:17:25.030Z,3.10
2023-05-10T04:18:26.801Z,3.77
2023-05-10T04:19:32.808Z,2.93
2023-05-10T04:20:34.741Z,2.90
2023-05-10T04:21:37.372Z,2.97
2023-05-10T04:22:40.135Z,3.57
2023-05-10T04:23:41.934Z,3.23
2023-05-10T04:24:43.859Z,3.00
2023-05-10T04:25:46.173Z,3.10
2023-05-10T04:26:47.998Z,2.70
2023-05-10T04:27:49.823Z,2.83
2023-05-10T04:28:51.608Z,3.33
2023-05-10T04:29:54.163Z,2.87
2023-05-10T04:31:02.674Z,3.20
2023-05-10T04:32:04.775Z,3.50
2023-05-10T04:33:06.693Z,3.27
2023-05-10T04:34:08.808Z,3.17
2023-05-10T04:35:11.763Z,2.63
2023-05-10T04:36:13.646Z,2.77
2023-05-10T04:37:15.235Z,3.00
2023-05-10T04:38:17.086Z,2.80
2023-05-10T04:39:19.263Z,3.10
2023-05-10T04:40:21.417Z,3.10
2023-05-10T04:41:24.551Z,3.20
2023-05-10T04:42:26.348Z,2.90
2023-05-10T04:43:27.802Z,2.70
2023-05-10T04:44:29.564Z,2.93
2023-05-10T04:45:31.750Z,3.53
2023-05-10T04:46:33.836Z,3.57
2023-05-10T04:47:35.496Z,3.63
2023-05-10T04:48:37.032Z,3.47
2023-05-10T04:49:38.894Z,3.07
2023-05-10T04:50:40.544Z,3.10
2023-05-10T04:51:41.952Z,3.07
2023-05-10T04:52:43.868Z,3.00
2023-05-10T04:54:01.709Z,2.97
2023-05-10T04:55:08.941Z,3.20
2023-05-10T04:56:10.997Z,2.90
2023-05-10T04:57:12.721Z,3.10
2023-05-10T04:58:14.312Z,2.87
2023-05-10T04:59:16.634Z,3.20
2023-05-10T05:00:18.784Z,2.73
2023-05-10T05:01:20.741Z,3.30
2023-05-10T05:02:23.087Z,3.13
2023-05-10T05:03:26.029Z,2.60
2023-05-10T05:04:27.936Z,3.57
2023-05-10T05:05:29.487Z,2.53
2023-05-10T05:06:31.342Z,2.80
2023-05-10T05:07:34.060Z,2.47
2023-05-10T05:08:36.061Z,2.50
2023-05-10T05:09:37.914Z,2.80
2023-05-10T05:10:39.767Z,2.87
2023-05-10T05:11:41.431Z,2.40
2023-05-10T05:12:43.296Z,2.10
2023-05-10T05:13:45.312Z,2.93
2023-05-10T05:14:47.037Z,2.13
2023-05-10T05:15:48.953Z,2.00
2023-05-10T05:16:50.652Z,2.10
2023-05-10T05:17:52.621Z,2.50
2023-05-10T05:18:54.745Z,1.90
2023-05-10T05:19:56.763Z,1.93
2023-05-10T05:20:58.471Z,2.40
2023-05-10T05:21:59.995Z,1.93
2023-05-10T05:23:02.191Z,2.13
2023-05-10T05:24:04.215Z,2.23
2023-05-10T05:25:06.815Z,2.00
2023-05-10T05:26:08.570Z,2.53
2023-05-10T05:27:10.082Z,2.03
2023-05-10T05:28:11.745Z,2.00
2023-05-10T05:29:14.118Z,1.70
2023-05-10T05:30:16.108Z,1.80
2023-05-10T05:31:18.082Z,1.67
2023-05-10T05:32:19.871Z,1.60
2023-05-10T05:33:21.633Z,1.83
2023-05-10T05:34:23.206Z,1.40
2023-05-10T05:35:24.776Z,1.70
2023-05-10T05:36:26.539Z,1.40
2023-05-10T05:37:28.141Z,1.43
2023-05-10T05:38:29.937Z,1.00
2023-05-10T05:39:31.807Z,1.93
2023-05-10T05:40:34.476Z,1.27
2023-05-10T05:41:36.229Z,1.37
2023-05-10T05:42:41.267Z,1.30
2023-05-10T05:43:43.227Z,1.67
2023-05-10T05:44:45.223Z,1.10
2023-05-10T05:45:46.815Z,1.47
2023-05-10T05:46:48.747Z,1.07
2023-05-10T05:47:53.947Z,1.10
2023-05-10T05:48:55.550Z,1.00
2023-05-10T05:49:58.219Z,1.00
2023-05-10T05:51:00.134Z,1.27
2023-05-10T05:52:02.861Z,1.43
2023-05-10T05:53:04.687Z,1.23
2023-05-10T05:54:06.378Z,1.20
2023-05-10T05:55:09.230Z,0.90
2023-05-10T05:56:11.756Z,1.03
2023-05-10T05:57:13.178Z,1.23
2023-05-10T05:58:14.712Z,1.10
2023-05-10T05:59:16.462Z,0.90
2023-05-10T06:00:19.662Z,1.00
2023-05-10T06:01:21.245Z,1.20
2023-05-10T06:02:22.787Z,0.90
2023-05-10T06:03:24.524Z,1.00
2023-05-10T06:04:26.287Z,0.83
2023-05-10T06:05:28.291Z,0.90
2023-05-10T06:06:30.378Z,0.80
2023-05-10T06:07:33.264Z,0.70
2023-05-10T06:08:35.320Z,0.90
2023-05-10T06:09:37.567Z,1.00
2023-05-10T06:10:39.188Z,1.43
2023-05-10T06:11:40.761Z,1.00
2023-05-10T06:12:43.154Z,1.07
2023-05-10T06:13:45.768Z,0.90
2023-05-10T06:14:48.168Z,0.63
2023-05-10T06:15:49.685Z,1.10
2023-05-10T06:16:51.677Z,0.80
2023-05-10T06:17:53.597Z,0.80
2023-05-10T06:18:55.099Z,1.20
2023-05-10T06:19:58.652Z,0.90
2023-05-10T06:21:00.264Z,0.90
2023-05-10T06:22:03.654Z,0.73
2023-05-10T06:23:05.436Z,0.80
2023-05-10T06:24:07.987Z,0.70
2023-05-10T06:25:09.786Z,0.80
2023-05-10T06:26:11.644Z,0.80
2023-05-10T06:27:15.353Z,0.90
2023-05-10T06:28:17.106Z,0.70
2023-05-10T06:29:18.870Z,0.70
2023-05-10T06:30:20.550Z,0.80
2023-05-10T06:31:23.921Z,0.63
2023-05-10T06:32:26.018Z,0.87
2023-05-10T06:33:27.924Z,0.60
2023-05-10T06:34:29.820Z,1.00
2023-05-10T06:35:33.546Z,1.10
2023-05-10T06:36:35.781Z,0.83
2023-05-10T06:37:47.369Z,0.77
2023-05-10T06:38:50.378Z,0.67
2023-05-10T06:39:52.309Z,0.77
2023-05-10T06:40:53.998Z,0.57
2023-05-10T06:41:55.581Z,0.57
2023-05-10T06:42:57.039Z,0.70
2023-05-10T06:43:59.257Z,0.60
2023-05-10T06:45:01.691Z,0.60
2023-05-10T06:46:04.555Z,0.90
2023-05-10T06:47:06.642Z,0.60
2023-05-10T06:48:09.074Z,0.60
2023-05-10T06:49:10.732Z,0.50
2023-05-10T06:50:12.805Z,0.60
2023-05-10T06:51:14.575Z,0.63
2023-05-10T06:52:19.087Z,0.60
2023-05-10T06:53:20.869Z,0.70
2023-05-10T06:54:22.768Z,0.60
2023-05-10T06:55:24.640Z,0.60
2023-05-10T06:56:28.185Z,0.60
2023-05-10T06:57:32.054Z,0.60
2023-05-10T06:58:35.317Z,0.57
2023-05-10T06:59:38.027Z,0.70
2023-05-10T07:00:41.619Z,0.60
2023-05-10T07:01:43.773Z,0.50
2023-05-10T07:02:46.608Z,0.50
2023-05-10T07:03:48.533Z,0.57
2023-05-10T07:04:50.323Z,0.43
2023-05-10T07:05:52.240Z,0.50
2023-05-10T07:06:54.128Z,0.50
2023-05-10T07:07:56.010Z,0.50
2023-05-10T07:08:58.342Z,0.50
2023-05-10T07:10:00.144Z,0.40
2023-05-10T07:11:03.028Z,0.50
2023-05-10T07:12:06.825Z,0.50
2023-05-10T07:13:09.962Z,0.40
2023-05-10T07:14:14.531Z,1.07
2023-05-10T07:15:17.641Z,0.50
2023-05-10T07:16:20.211Z,0.50
2023-05-10T07:17:22.187Z,0.40
2023-05-10T07:18:23.973Z,0.40
2023-05-10T07:19:25.771Z,0.50
2023-05-10T07:20:27.302Z,0.40
2023-05-10T07:21:30.217Z,0.60
2023-05-10T07:22:31.951Z,0.60
2023-05-10T07:23:34.120Z,0.40
2023-05-10T07:24:36.078Z,0.50
2023-05-10T07:25:38.712Z,0.50
2023-05-10T07:26:40.396Z,0.60
2023-05-10T07:27:42.126Z,0.43
2023-05-10T07:28:44.085Z,0.50
2023-05-10T07:29:46.375Z,0.70
2023-05-10T07:30:50.431Z,1.17
2023-05-10T07:31:53.158Z,0.47
2023-05-10T07:32:54.720Z,0.50
2023-05-10T07:33:56.331Z,0.60
2023-05-10T07:34:57.843Z,0.70
2023-05-10T07:35:59.695Z,0.60
2023-05-10T07:37:01.437Z,0.90
2023-05-10T07:38:03.976Z,0.70
2023-05-10T07:39:06.944Z,0.50
2023-05-10T07:40:08.879Z,0.50
2023-05-10T07:41:10.992Z,0.50
2023-05-10T07:42:15.043Z,0.60
2023-05-10T07:43:16.588Z,0.50
2023-05-10T07:44:20.260Z,0.60
2023-05-10T07:45:22.476Z,0.60
2023-05-10T07:46:24.389Z,0.93
2023-05-10T07:47:26.544Z,0.70
2023-05-10T07:48:28.649Z,0.90
2023-05-10T07:49:30.453Z,0.50
2023-05-10T07:50:32.014Z,0.87
2023-05-10T07:51:34.793Z,0.70
2023-05-10T07:52:36.451Z,0.50
2023-05-10T07:53:38.640Z,0.60
2023-05-10T07:54:40.137Z,0.67
2023-05-10T07:55:41.939Z,0.90
2023-05-10T07:56:49.299Z,0.70
2023-05-10T07:57:52.491Z,1.00
2023-05-10T07:58:55.217Z,0.60
2023-05-10T07:59:57.237Z,0.60
2023-05-10T08:00:59.111Z,0.50
2023-05-10T08:02:00.873Z,0.70
2023-05-10T08:03:02.602Z,0.60
2023-05-10T08:04:04.325Z,0.63
2023-05-10T08:05:06.943Z,0.60
2023-05-10T08:06:09.433Z,0.60
2023-05-10T08:07:11.873Z,0.70
2023-05-10T08:08:14.190Z,0.67
2023-05-10T08:09:16.177Z,0.60
2023-05-10T08:10:17.953Z,0.70
2023-05-10T08:11:19.708Z,1.00
2023-05-10T08:12:21.211Z,0.40
2023-05-10T08:13:22.837Z,1.13
2023-05-10T08:14:25.684Z,0.93
2023-05-10T08:15:27.940Z,0.77
2023-05-10T08:16:30.200Z,0.63
2023-05-10T08:17:32.241Z,0.40
2023-05-10T08:18:33.941Z,1.40
2023-05-10T08:19:36.196Z,0.50
2023-05-10T08:20:37.930Z,0.60
2023-05-10T08:21:41.452Z,0.70
2023-05-10T08:22:42.986Z,0.73
2023-05-10T08:23:47.569Z,0.47
2023-05-10T08:24:50.419Z,0.57
2023-05-10T08:25:51.903Z,0.50
2023-05-10T08:26:53.893Z,0.60
2023-05-10T08:27:55.728Z,0.60
2023-05-10T08:28:57.656Z,0.47
2023-05-10T08:30:00.497Z,0.83
2023-05-10T08:31:03.424Z,0.70
2023-05-10T08:32:05.209Z,0.53
2023-05-10T08:33:07.264Z,0.70
2023-05-10T08:34:10.354Z,0.50
2023-05-10T08:35:12.804Z,1.03
2023-05-10T08:36:16.842Z,0.70
2023-05-10T08:37:18.687Z,0.63
2023-05-10T08:38:21.997Z,0.60
2023-05-10T08:39:30.238Z,0.53
2023-05-10T08:40:32.204Z,0.60
2023-05-10T08:41:34.512Z,0.57
2023-05-10T08:42:38.812Z,0.50
2023-05-10T08:43:42.640Z,0.70
2023-05-10T08:44:44.429Z,0.60
2023-05-10T08:45:48.301Z,1.50
2023-05-10T08:46:54.961Z,0.97
2023-05-10T08:47:57.066Z,0.60
2023-05-10T08:49:01.065Z,0.70
2023-05-10T08:50:04.060Z,0.73
2023-05-10T08:51:05.958Z,0.70
2023-05-10T08:52:08.700Z,0.70
2023-05-10T08:53:11.220Z,0.70
2023-05-10T08:54:13.637Z,0.93
2023-05-10T08:55:16.291Z,0.70
2023-05-10T08:56:19.368Z,0.63
2023-05-10T08:57:21.937Z,0.60
2023-05-10T08:58:23.534Z,0.63
2023-05-10T08:59:25.356Z,0.80
2023-05-10T09:00:27.812Z,0.83
2023-05-10T09:01:29.930Z,0.70
2023-05-10T09:02:31.744Z,0.80
2023-05-10T09:03:33.905Z,0.60
2023-05-10T09:04:35.849Z,0.90
2023-05-10T09:05:37.664Z,0.90
2023-05-10T09:06:39.954Z,0.90
2023-05-10T09:07:42.694Z,0.83
2023-05-10T09:08:44.490Z,0.73
2023-05-10T09:09:50.178Z,0.70
2023-05-10T09:10:51.725Z,0.50
2023-05-10T09:11:55.478Z,0.80
2023-05-10T09:12:59.293Z,0.60
2023-05-10T09:14:02.794Z,0.90
2023-05-10T09:15:05.215Z,0.80
2023-05-10T09:16:19.832Z,0.87
2023-05-10T09:17:24.593Z,0.80
2023-05-10T09:18:27.936Z,1.10
2023-05-10T09:19:30.125Z,0.97
2023-05-10T09:20:32.221Z,0.90
2023-05-10T09:21:35.257Z,0.90
2023-05-10T09:22:37.312Z,1.43
2023-05-10T09:23:39.106Z,0.80
2023-05-10T09:24:46.503Z,1.27
2023-05-10T09:25:49.142Z,1.53
2023-05-10T09:26:52.550Z,0.90
2023-05-10T09:27:54.863Z,1.07
2023-05-10T09:28:59.322Z,1.07
2023-05-10T09:30:01.261Z,1.00
2023-05-10T09:31:03.198Z,1.37
2023-05-10T09:32:07.822Z,1.07
2023-05-10T09:33:09.704Z,1.27
2023-05-10T09:34:12.243Z,1.03
2023-05-10T09:35:14.950Z,1.00
2023-05-10T09:36:16.695Z,0.80
2023-05-10T09:37:18.527Z,0.70
2023-05-10T09:38:20.953Z,0.97
2023-05-10T09:39:33.234Z,1.30
2023-05-10T09:40:36.435Z,0.90
2023-05-10T09:41:37.960Z,0.90
2023-05-10T09:42:44.650Z,0.77
2023-05-10T09:43:47.452Z,1.27
2023-05-10T09:44:49.776Z,0.90
2023-05-10T09:45:51.391Z,1.03
2023-05-10T09:46:54.869Z,1.17
2023-05-10T09:47:57.106Z,1.27
2023-05-10T09:49:00.566Z,0.90
2023-05-10T09:50:05.692Z,0.90
2023-05-10T09:51:07.864Z,1.00
2023-05-10T09:52:09.433Z,1.17
2023-05-10T09:53:15.941Z,0.90
2023-05-10T09:54:17.806Z,0.83
2023-05-10T09:55:20.873Z,1.20
2023-05-10T09:56:36.547Z,0.83
2023-05-10T09:57:38.036Z,1.23
2023-05-10T09:58:40.593Z,0.80
2023-05-10T09:59:43.918Z,1.00
2023-05-10T10:01:08.007Z,0.70
2023-05-10T10:02:11.706Z,1.10
2023-05-10T10:03:17.457Z,0.80
2023-05-10T10:04:20.920Z,1.00
2023-05-10T10:05:29.117Z,0.77
2023-05-10T10:06:31.017Z,1.00
2023-05-10T10:07:33.286Z,1.30
2023-05-10T10:08:35.462Z,1.00
2023-05-10T10:09:37.304Z,0.60
2023-05-10T10:10:42.877Z,0.70
2023-05-10T10:11:45.080Z,0.70
2023-05-10T10:12:46.702Z,0.90
2023-05-10T10:13:48.508Z,0.80
2023-05-10T10:14:51.806Z,1.00
2023-05-10T10:15:53.624Z,0.87
2023-05-10T10:17:05.746Z,0.70
2023-05-10T10:18:09.119Z,0.73
2023-05-10T10:19:11.339Z,0.90
2023-05-10T10:20:13.577Z,1.20
2023-05-10T10:21:16.315Z,0.93
2023-05-10T10:22:17.954Z,0.90
2023-05-10T10:23:20.575Z,0.80
2023-05-10T10:24:22.335Z,0.87
2023-05-10T10:25:25.937Z,1.13
2023-05-10T10:26:29.146Z,0.67
2023-05-10T10:27:36.810Z,1.20
2023-05-10T10:28:57.172Z,1.20
2023-05-10T10:29:58.987Z,0.83
2023-05-10T10:31:03.164Z,1.57
2023-05-10T10:32:14.032Z,1.47
2023-05-10T10:33:36.787Z,1.13
2023-05-10T10:34:40.146Z,1.07
2023-05-10T10:35:42.676Z,1.13
2023-05-10T10:36:46.566Z,1.20
2023-05-10T10:37:51.394Z,1.00
2023-05-10T10:38:53.518Z,1.43
2023-05-10T10:39:56.487Z,1.30
2023-05-10T10:41:04.431Z,0.80
2023-05-10T10:42:06.352Z,1.10
2023-05-10T10:43:24.319Z,1.30
2023-05-10T10:44:27.476Z,1.53
2023-05-10T10:45:29.164Z,1.27
2023-05-10T10:46:32.875Z,0.80
2023-05-10T10:47:35.169Z,1.30
2023-05-10T10:48:37.279Z,0.90
2023-05-10T10:49:39.106Z,1.00
2023-05-10T10:50:48.020Z,0.90
2023-05-10T10:52:08.852Z,0.80
2023-05-10T10:53:14.993Z,0.83
2023-05-10T10:54:28.406Z,0.70
2023-05-10T10:55:31.551Z,0.83
2023-05-10T10:56:36.454Z,1.03
2023-05-10T10:57:42.513Z,0.83
2023-05-10T10:58:51.947Z,0.90
2023-05-10T11:00:15.718Z,0.83
2023-05-10T11:01:18.922Z,1.20
2023-05-10T11:02:42.053Z,1.50
2023-05-10T11:04:23.757Z,1.10
2023-05-10T11:05:25.827Z,0.80
2023-05-10T11:06:35.313Z,1.00
2023-05-10T11:07:37.258Z,0.73
2023-05-10T11:08:45.627Z,1.00
2023-05-10T11:09:49.609Z,1.00
2023-05-10T11:10:53.241Z,1.00
2023-05-10T11:11:59.410Z,1.17
2023-05-10T11:13:02.069Z,0.90
2023-05-10T11:14:05.083Z,0.80
2023-05-10T11:15:10.149Z,0.87
2023-05-10T11:16:18.069Z,0.80
2023-05-10T11:17:28.563Z,0.80
2023-05-10T11:18:31.283Z,1.00
2023-05-10T11:19:33.291Z,1.00
2023-05-10T11:20:40.978Z,0.87
2023-05-10T11:21:47.972Z,1.10
2023-05-10T11:22:56.496Z,1.10
2023-05-10T11:23:59.501Z,0.70
2023-05-10T11:25:02.033Z,0.80
2023-05-10T11:26:03.907Z,1.40
2023-05-10T11:27:06.392Z,1.30
2023-05-10T11:28:08.425Z,0.83
2023-05-10T11:29:10.740Z,1.03
2023-05-10T11:30:12.945Z,0.60
2023-05-10T11:31:15.348Z,0.77
2023-05-10T11:32:17.792Z,0.97
2023-05-10T11:33:20.563Z,0.97
2023-05-10T11:34:27.542Z,1.10
2023-05-10T11:35:30.420Z,1.00
2023-05-10T11:36:36.904Z,1.27
2023-05-10T11:37:44.709Z,0.63
2023-05-10T11:38:47.597Z,1.13
2023-05-10T11:39:51.358Z,1.10
2023-05-10T11:40:54.255Z,1.00
2023-05-10T11:41:56.111Z,1.00
2023-05-10T11:42:57.818Z,1.37
2023-05-10T11:43:59.368Z,0.90
2023-05-10T11:45:02.075Z,0.80
2023-05-10T11:46:03.969Z,1.10
2023-05-10T11:47:06.660Z,1.00
2023-05-10T11:48:08.474Z,0.87
2023-05-10T11:49:11.884Z,0.80
2023-05-10T11:50:15.144Z,1.10
2023-05-10T11:51:19.185Z,0.90
2023-05-10T11:52:21.389Z,1.03
2023-05-10T11:53:25.818Z,0.90
2023-05-10T11:54:29.758Z,1.27
2023-05-10T11:55:35.243Z,1.20
2023-05-10T11:56:37.486Z,0.83
2023-05-10T11:57:39.668Z,0.73
2023-05-10T11:58:42.233Z,0.70
2023-05-10T11:59:44.230Z,0.90
2023-05-10T12:00:46.545Z,0.70
2023-05-10T12:01:49.010Z,1.60
2023-05-10T12:02:51.889Z,0.80
2023-05-10T12:03:54.413Z,1.10
2023-05-10T12:04:56.866Z,1.10
2023-05-10T12:06:00.318Z,1.23
2023-05-10T12:07:02.269Z,1.30
2023-05-10T12:08:15.021Z,1.23
2023-05-10T12:09:22.958Z,0.93
2023-05-10T12:10:35.977Z,0.80
2023-05-10T12:11:43.577Z,0.80
2023-05-10T12:12:52.015Z,0.97
2023-05-10T12:13:54.655Z,0.87
2023-05-10T12:15:02.780Z,0.90
2023-05-10T12:16:13.539Z,0.70
2023-05-10T12:17:15.409Z,1.27
2023-05-10T12:18:23.682Z,0.90
2023-05-10T12:19:25.663Z,0.63
2023-05-10T12:20:29.068Z,0.60
2023-05-10T12:21:32.020Z,0.50
2023-05-10T12:22:37.686Z,0.57
2023-05-10T12:23:40.074Z,0.80
2023-05-10T12:24:41.997Z,0.60
2023-05-10T12:25:43.552Z,0.50
2023-05-10T12:26:50.440Z,0.63
2023-05-10T12:27:53.343Z,0.60
2023-05-10T12:28:55.598Z,0.70
2023-05-10T12:30:01.185Z,0.53
2023-05-10T12:31:02.771Z,0.50
2023-05-10T12:32:04.354Z,0.70
2023-05-10T12:33:09.180Z,0.70
2023-05-10T12:34:11.265Z,0.70
2023-05-10T12:35:12.878Z,1.00
2023-05-10T12:36:15.678Z,0.70
2023-05-10T12:37:18.423Z,0.80
2023-05-10T12:38:35.837Z,0.80
2023-05-10T12:39:41.447Z,1.27
2023-05-10T12:40:43.986Z,1.50
2023-05-10T12:41:46.049Z,0.67
2023-05-10T12:42:47.639Z,0.70
2023-05-10T12:43:49.914Z,0.83
2023-05-10T12:44:55.782Z,0.60
2023-05-10T12:45:57.533Z,0.70
2023-05-10T12:46:59.193Z,0.70
2023-05-10T12:48:00.989Z,0.70
2023-05-10T12:49:09.034Z,0.53
2023-05-10T12:50:12.254Z,0.63
2023-05-10T12:51:16.772Z,0.70
2023-05-10T12:52:18.423Z,0.57
2023-05-10T12:53:19.967Z,0.50
2023-05-10T12:54:22.273Z,0.60
2023-05-10T12:55:24.298Z,0.40
2023-05-10T12:56:26.093Z,0.50
2023-05-10T12:57:30.581Z,0.60
2023-05-10T12:58:36.045Z,0.47
2023-05-10T12:59:38.392Z,0.70
2023-05-10T13:00:40.216Z,0.60
2023-05-10T13:01:42.535Z,0.70
2023-05-10T13:02:44.768Z,0.40
2023-05-10T13:03:46.988Z,0.60
2023-05-10T13:04:51.024Z,0.80
2023-05-10T13:05:53.748Z,0.60
2023-05-10T13:07:00.068Z,0.80
2023-05-10T13:08:02.390Z,0.60
2023-05-10T13:09:05.378Z,0.87
2023-05-10T13:10:08.983Z,0.70
2023-05-10T13:11:10.713Z,0.60
2023-05-10T13:12:13.243Z,0.67
2023-05-10T13:13:15.816Z,0.67
2023-05-10T13:14:17.505Z,0.70
2023-05-10T13:15:19.527Z,0.67
2023-05-10T13:16:21.399Z,0.60
2023-05-10T13:17:23.066Z,0.50
2023-05-10T13:18:26.347Z,0.50
2023-05-10T13:19:29.236Z,0.60
2023-05-10T13:20:31.715Z,0.40
2023-05-10T13:21:34.005Z,0.60
2023-05-10T13:22:40.360Z,0.90
2023-05-10T13:23:42.243Z,0.67
2023-05-10T13:24:44.162Z,0.67
2023-05-10T13:25:45.835Z,0.70
2023-05-10T13:26:47.443Z,0.80
2023-05-10T13:27:48.985Z,0.60
2023-05-10T13:28:53.001Z,0.50
2023-05-10T13:29:54.762Z,0.40
2023-05-10T13:30:56.244Z,0.60
2023-05-10T13:31:58.191Z,0.53
2023-05-10T13:32:59.816Z,0.50
2023-05-10T13:34:01.549Z,0.57
2023-05-10T13:35:04.293Z,0.53
2023-05-10T13:36:07.440Z,0.70
2023-05-10T13:37:09.976Z,0.90
2023-05-10T13:38:11.494Z,0.90
2023-05-10T13:39:13.570Z,0.50
2023-05-10T13:40:17.006Z,0.50
2023-05-10T13:41:19.032Z,0.60
2023-05-10T13:42:22.063Z,0.80
2023-05-10T13:43:24.770Z,0.60
2023-05-10T13:44:27.709Z,0.47
2023-05-10T13:45:29.494Z,0.40
2023-05-10T13:46:31.904Z,0.40
2023-05-10T13:47:33.850Z,0.70
2023-05-10T13:48:38.971Z,0.67
2023-05-10T13:49:40.711Z,1.00
2023-05-10T13:50:42.318Z,0.70
2023-05-10T13:51:44.462Z,0.63
2023-05-10T13:52:46.424Z,0.40
2023-05-10T13:53:48.147Z,0.60
2023-05-10T13:54:49.988Z,0.70
2023-05-10T13:55:52.108Z,0.70
2023-05-10T13:56:55.429Z,0.60
2023-05-10T13:57:59.914Z,0.60
2023-05-10T13:59:02.061Z,0.67
2023-05-10T14:00:04.167Z,0.50
2023-05-10T14:01:06.006Z,0.60
2023-05-10T14:02:07.613Z,0.50
2023-05-10T14:03:12.416Z,0.50
2023-05-10T14:04:14.463Z,0.50
2023-05-10T14:05:17.137Z,0.50
2023-05-10T14:06:21.264Z,0.60